METAR Data
IDs: Format: Raw Decoded Include TAF

Data at: 1841 UTC 26 Sep 2021

SCEL 261800Z 15009KT 120V200 CAVOK 24/07 Q1015 NOSIG